sensor_id;sensor_type;location;lat;lon;timestamp;temperature;humidity
82868;DHT22;72629;51.206;4.424;2023-10-08T00:01:27;19.10;55.50
82868;DHT22;72629;51.206;4.424;2023-10-08T00:03:53;19.10;55.30
82868;DHT22;72629;51.206;4.424;2023-10-08T00:06:23;19.10;55.40
82868;DHT22;72629;51.206;4.424;2023-10-08T00:08:50;19.10;55.30
82868;DHT22;72629;51.206;4.424;2023-10-08T00:11:19;19.10;55.10
82868;DHT22;72629;51.206;4.424;2023-10-08T00:13:48;19.10;55.20
82868;DHT22;72629;51.206;4.424;2023-10-08T00:16:14;19.10;55.20
82868;DHT22;72629;51.206;4.424;2023-10-08T00:18:44;19.00;55.40
82868;DHT22;72629;51.206;4.424;2023-10-08T00:21:17;19.00;55.60
82868;DHT22;72629;51.206;4.424;2023-10-08T00:23:45;19.00;55.60
82868;DHT22;72629;51.206;4.424;2023-10-08T00:26:26;18.90;55.70
82868;DHT22;72629;51.206;4.424;2023-10-08T00:29:02;19.00;55.90
82868;DHT22;72629;51.206;4.424;2023-10-08T00:31:51;19.00;55.70
82868;DHT22;72629;51.206;4.424;2023-10-08T00:34:18;18.90;56.00
82868;DHT22;72629;51.206;4.424;2023-10-08T00:36:48;18.90;56.00
82868;DHT22;72629;51.206;4.424;2023-10-08T00:39:14;18.90;56.20
82868;DHT22;72629;51.206;4.424;2023-10-08T00:41:49;18.80;56.20
82868;DHT22;72629;51.206;4.424;2023-10-08T00:44:24;18.90;56.20
82868;DHT22;72629;51.206;4.424;2023-10-08T00:46:56;18.70;56.40
82868;DHT22;72629;51.206;4.424;2023-10-08T00:49:24;18.70;56.70
82868;DHT22;72629;51.206;4.424;2023-10-08T00:51:55;18.70;56.80
82868;DHT22;72629;51.206;4.424;2023-10-08T00:54:34;18.70;56.90
82868;DHT22;72629;51.206;4.424;2023-10-08T00:57:14;18.70;56.90
82868;DHT22;72629;51.206;4.424;2023-10-08T00:59:46;18.70;56.90
82868;DHT22;72629;51.206;4.424;2023-10-08T01:02:16;18.70;57.00
82868;DHT22;72629;51.206;4.424;2023-10-08T01:04:45;18.70;57.00
82868;DHT22;72629;51.206;4.424;2023-10-08T01:07:13;18.70;57.00
82868;DHT22;72629;51.206;4.424;2023-10-08T01:09:42;18.70;57.20
82868;DHT22;72629;51.206;4.424;2023-10-08T01:12:14;18.70;57.30
82868;DHT22;72629;51.206;4.424;2023-10-08T01:14:55;18.60;57.60
82868;DHT22;72629;51.206;4.424;2023-10-08T01:17:30;18.70;57.80
82868;DHT22;72629;51.206;4.424;2023-10-08T01:19:58;18.60;57.90
82868;DHT22;72629;51.206;4.424;2023-10-08T01:22:45;18.60;57.90
82868;DHT22;72629;51.206;4.424;2023-10-08T01:25:11;18.60;58.00
82868;DHT22;72629;51.206;4.424;2023-10-08T01:27:46;18.60;58.10
82868;DHT22;72629;51.206;4.424;2023-10-08T01:30:12;18.50;58.50
82868;DHT22;72629;51.206;4.424;2023-10-08T01:32:44;18.50;58.80
82868;DHT22;72629;51.206;4.424;2023-10-08T01:35:09;18.50;58.90
82868;DHT22;72629;51.206;4.424;2023-10-08T01:37:52;18.50;58.90
82868;DHT22;72629;51.206;4.424;2023-10-08T01:40:18;18.50;59.00
82868;DHT22;72629;51.206;4.424;2023-10-08T01:42:44;18.50;59.20
82868;DHT22;72629;51.206;4.424;2023-10-08T01:45:11;18.40;59.30
82868;DHT22;72629;51.206;4.424;2023-10-08T01:47:44;18.40;59.50
82868;DHT22;72629;51.206;4.424;2023-10-08T01:50:10;18.40;59.60
82868;DHT22;72629;51.206;4.424;2023-10-08T01:52:47;18.40;59.70
82868;DHT22;72629;51.206;4.424;2023-10-08T01:55:13;18.30;59.80
82868;DHT22;72629;51.206;4.424;2023-10-08T01:57:45;18.40;59.90
82868;DHT22;72629;51.206;4.424;2023-10-08T02:00:11;18.40;60.00
82868;DHT22;72629;51.206;4.424;2023-10-08T02:02:39;18.40;60.20
82868;DHT22;72629;51.206;4.424;2023-10-08T02:05:06;18.40;60.30
82868;DHT22;72629;51.206;4.424;2023-10-08T02:07:32;18.40;60.30
82868;DHT22;72629;51.206;4.424;2023-10-08T02:09:59;18.50;60.30
82868;DHT22;72629;51.206;4.424;2023-10-08T02:12:25;18.40;60.40
82868;DHT22;72629;51.206;4.424;2023-10-08T02:14:51;18.40;60.80
82868;DHT22;72629;51.206;4.424;2023-10-08T02:17:16;18.30;62.20
82868;DHT22;72629;51.206;4.424;2023-10-08T02:19:42;18.30;61.10
82868;DHT22;72629;51.206;4.424;2023-10-08T02:22:08;18.40;61.00
82868;DHT22;72629;51.206;4.424;2023-10-08T02:24:37;18.40;60.90
82868;DHT22;72629;51.206;4.424;2023-10-08T02:27:03;18.40;61.00
82868;DHT22;72629;51.206;4.424;2023-10-08T02:29:30;18.40;61.10
82868;DHT22;72629;51.206;4.424;2023-10-08T02:31:56;18.40;61.40
82868;DHT22;72629;51.206;4.424;2023-10-08T02:34:22;18.30;61.60
82868;DHT22;72629;51.206;4.424;2023-10-08T02:36:48;18.40;61.50
82868;DHT22;72629;51.206;4.424;2023-10-08T02:39:14;18.40;61.50
82868;DHT22;72629;51.206;4.424;2023-10-08T02:41:48;18.50;61.30
82868;DHT22;72629;51.206;4.424;2023-10-08T02:44:14;18.40;61.60
82868;DHT22;72629;51.206;4.424;2023-10-08T02:46:41;18.40;61.70
82868;DHT22;72629;51.206;4.424;2023-10-08T02:49:11;18.40;61.70
82868;DHT22;72629;51.206;4.424;2023-10-08T02:51:40;18.40;61.90
82868;DHT22;72629;51.206;4.424;2023-10-08T02:54:09;18.40;61.90
82868;DHT22;72629;51.206;4.424;2023-10-08T02:56:43;18.40;62.00
82868;DHT22;72629;51.206;4.424;2023-10-08T02:59:11;18.30;62.10
82868;DHT22;72629;51.206;4.424;2023-10-08T03:01:38;18.30;62.30
82868;DHT22;72629;51.206;4.424;2023-10-08T03:04:07;18.30;62.50
82868;DHT22;72629;51.206;4.424;2023-10-08T03:06:40;18.20;62.60
82868;DHT22;72629;51.206;4.424;2023-10-08T03:09:06;18.20;62.90
82868;DHT22;72629;51.206;4.424;2023-10-08T03:11:35;18.10;63.20
82868;DHT22;72629;51.206;4.424;2023-10-08T03:14:02;18.10;63.30
82868;DHT22;72629;51.206;4.424;2023-10-08T03:16:28;18.10;63.30
82868;DHT22;72629;51.206;4.424;2023-10-08T03:19:01;18.20;63.50
82868;DHT22;72629;51.206;4.424;2023-10-08T03:21:26;18.20;63.30
82868;DHT22;72629;51.206;4.424;2023-10-08T03:24:04;18.20;63.30
82868;DHT22;72629;51.206;4.424;2023-10-08T03:26:38;18.20;63.40
82868;DHT22;72629;51.206;4.424;2023-10-08T03:29:10;18.30;63.40
82868;DHT22;72629;51.206;4.424;2023-10-08T03:31:43;18.20;63.30
82868;DHT22;72629;51.206;4.424;2023-10-08T03:34:11;18.20;63.50
82868;DHT22;72629;51.206;4.424;2023-10-08T03:36:42;18.30;63.50
82868;DHT22;72629;51.206;4.424;2023-10-08T03:39:11;18.30;63.50
82868;DHT22;72629;51.206;4.424;2023-10-08T03:41:42;18.20;63.90
82868;DHT22;72629;51.206;4.424;2023-10-08T03:44:17;18.10;64.10
82868;DHT22;72629;51.206;4.424;2023-10-08T03:46:43;18.10;64.40
82868;DHT22;72629;51.206;4.424;2023-10-08T03:49:12;18.10;64.60
82868;DHT22;72629;51.206;4.424;2023-10-08T03:51:44;18.00;64.70
82868;DHT22;72629;51.206;4.424;2023-10-08T03:54:10;18.00;65.00
82868;DHT22;72629;51.206;4.424;2023-10-08T03:56:42;18.00;65.30
82868;DHT22;72629;51.206;4.424;2023-10-08T03:59:14;18.00;65.50
82868;DHT22;72629;51.206;4.424;2023-10-08T04:01:46;18.00;65.60
82868;DHT22;72629;51.206;4.424;2023-10-08T04:04:15;18.00;65.60
82868;DHT22;72629;51.206;4.424;2023-10-08T04:06:41;18.00;65.70
82868;DHT22;72629;51.206;4.424;2023-10-08T04:09:19;18.00;65.70
82868;DHT22;72629;51.206;4.424;2023-10-08T04:11:51;18.00;65.80
82868;DHT22;72629;51.206;4.424;2023-10-08T04:14:21;18.00;65.80
82868;DHT22;72629;51.206;4.424;2023-10-08T04:16:47;18.00;65.90
82868;DHT22;72629;51.206;4.424;2023-10-08T04:19:21;18.00;65.90
82868;DHT22;72629;51.206;4.424;2023-10-08T04:21:50;18.00;65.90
82868;DHT22;72629;51.206;4.424;2023-10-08T04:24:24;18.00;65.90
82868;DHT22;72629;51.206;4.424;2023-10-08T04:27:02;18.00;66.00
82868;DHT22;72629;51.206;4.424;2023-10-08T04:29:29;18.00;66.10
82868;DHT22;72629;51.206;4.424;2023-10-08T04:31:59;18.00;66.20
82868;DHT22;72629;51.206;4.424;2023-10-08T04:34:34;18.00;66.20
82868;DHT22;72629;51.206;4.424;2023-10-08T04:36:59;18.00;66.20
82868;DHT22;72629;51.206;4.424;2023-10-08T04:39:30;18.00;66.20
82868;DHT22;72629;51.206;4.424;2023-10-08T04:42:02;18.00;66.30
82868;DHT22;72629;51.206;4.424;2023-10-08T04:44:38;17.90;66.50
82868;DHT22;72629;51.206;4.424;2023-10-08T04:47:05;18.00;66.60
82868;DHT22;72629;51.206;4.424;2023-10-08T04:49:32;18.00;66.70
82868;DHT22;72629;51.206;4.424;2023-10-08T04:52:06;17.90;66.60
82868;DHT22;72629;51.206;4.424;2023-10-08T04:54:44;17.90;66.90
82868;DHT22;72629;51.206;4.424;2023-10-08T04:57:17;17.90;66.90
82868;DHT22;72629;51.206;4.424;2023-10-08T04:59:44;17.90;67.00
82868;DHT22;72629;51.206;4.424;2023-10-08T05:02:12;17.90;67.20
82868;DHT22;72629;51.206;4.424;2023-10-08T05:04:39;17.90;67.20
82868;DHT22;72629;51.206;4.424;2023-10-08T05:07:23;17.90;67.30
82868;DHT22;72629;51.206;4.424;2023-10-08T05:10:07;17.90;67.30
82868;DHT22;72629;51.206;4.424;2023-10-08T05:12:33;17.90;67.40
82868;DHT22;72629;51.206;4.424;2023-10-08T05:15:37;17.90;67.60
82868;DHT22;72629;51.206;4.424;2023-10-08T05:18:07;17.90;67.80
82868;DHT22;72629;51.206;4.424;2023-10-08T05:20:49;17.90;67.70
82868;DHT22;72629;51.206;4.424;2023-10-08T05:23:17;17.80;67.80
82868;DHT22;72629;51.206;4.424;2023-10-08T05:25:56;17.90;68.00
82868;DHT22;72629;51.206;4.424;2023-10-08T05:31:11;17.80;68.30
82868;DHT22;72629;51.206;4.424;2023-10-08T05:33:47;17.80;68.50
82868;DHT22;72629;51.206;4.424;2023-10-08T05:36:43;17.80;68.40
82868;DHT22;72629;51.206;4.424;2023-10-08T05:39:27;17.90;68.30
82868;DHT22;72629;51.206;4.424;2023-10-08T05:42:06;17.90;68.10
82868;DHT22;72629;51.206;4.424;2023-10-08T05:44:42;17.80;68.30
82868;DHT22;72629;51.206;4.424;2023-10-08T05:47:14;17.80;68.50
82868;DHT22;72629;51.206;4.424;2023-10-08T05:49:43;17.90;68.50
82868;DHT22;72629;51.206;4.424;2023-10-08T05:52:20;17.90;68.50
82868;DHT22;72629;51.206;4.424;2023-10-08T05:55:03;17.90;68.60
82868;DHT22;72629;51.206;4.424;2023-10-08T05:57:47;17.90;68.40
82868;DHT22;72629;51.206;4.424;2023-10-08T06:00:17;17.80;68.40
82868;DHT22;72629;51.206;4.424;2023-10-08T06:03:03;17.80;68.80
82868;DHT22;72629;51.206;4.424;2023-10-08T06:05:35;17.80;69.00
82868;DHT22;72629;51.206;4.424;2023-10-08T06:08:09;17.80;69.10
82868;DHT22;72629;51.206;4.424;2023-10-08T06:10:40;17.90;69.10
82868;DHT22;72629;51.206;4.424;2023-10-08T06:13:11;17.80;69.00
82868;DHT22;72629;51.206;4.424;2023-10-08T06:16:06;17.80;69.10
82868;DHT22;72629;51.206;4.424;2023-10-08T06:18:34;17.80;69.40
82868;DHT22;72629;51.206;4.424;2023-10-08T06:21:04;17.80;69.50
82868;DHT22;72629;51.206;4.424;2023-10-08T06:23:35;17.90;69.60
82868;DHT22;72629;51.206;4.424;2023-10-08T06:26:01;17.90;69.30
82868;DHT22;72629;51.206;4.424;2023-10-08T06:28:37;17.90;69.40
82868;DHT22;72629;51.206;4.424;2023-10-08T06:31:04;17.90;69.50
82868;DHT22;72629;51.206;4.424;2023-10-08T06:33:38;17.90;69.70
82868;DHT22;72629;51.206;4.424;2023-10-08T06:36:06;18.00;69.60
82868;DHT22;72629;51.206;4.424;2023-10-08T06:38:45;18.00;69.50
82868;DHT22;72629;51.206;4.424;2023-10-08T06:41:15;18.00;69.50
82868;DHT22;72629;51.206;4.424;2023-10-08T06:43:47;18.10;69.50
82868;DHT22;72629;51.206;4.424;2023-10-08T06:46:28;18.10;69.40
82868;DHT22;72629;51.206;4.424;2023-10-08T06:48:58;18.10;69.40
82868;DHT22;72629;51.206;4.424;2023-10-08T06:51:24;18.20;69.50
82868;DHT22;72629;51.206;4.424;2023-10-08T06:53:51;18.20;69.40
82868;DHT22;72629;51.206;4.424;2023-10-08T06:56:19;18.20;69.40
82868;DHT22;72629;51.206;4.424;2023-10-08T06:58:46;18.20;69.50
82868;DHT22;72629;51.206;4.424;2023-10-08T07:01:21;18.20;69.60
82868;DHT22;72629;51.206;4.424;2023-10-08T07:03:48;18.20;69.50
82868;DHT22;72629;51.206;4.424;2023-10-08T07:06:18;18.30;69.40
82868;DHT22;72629;51.206;4.424;2023-10-08T07:08:57;18.30;69.30
82868;DHT22;72629;51.206;4.424;2023-10-08T07:11:25;18.30;69.50
82868;DHT22;72629;51.206;4.424;2023-10-08T07:13:52;18.20;69.60
82868;DHT22;72629;51.206;4.424;2023-10-08T07:16:18;18.20;69.60
82868;DHT22;72629;51.206;4.424;2023-10-08T07:18:46;18.30;69.70
82868;DHT22;72629;51.206;4.424;2023-10-08T07:21:18;18.30;69.60
82868;DHT22;72629;51.206;4.424;2023-10-08T07:23:49;18.30;69.60
82868;DHT22;72629;51.206;4.424;2023-10-08T07:26:30;18.30;69.90
82868;DHT22;72629;51.206;4.424;2023-10-08T07:29:02;18.30;69.80
82868;DHT22;72629;51.206;4.424;2023-10-08T07:31:35;18.40;69.90
82868;DHT22;72629;51.206;4.424;2023-10-08T07:34:03;18.30;70.00
82868;DHT22;72629;51.206;4.424;2023-10-08T07:36:42;18.30;70.20
82868;DHT22;72629;51.206;4.424;2023-10-08T07:39:08;18.30;70.20
82868;DHT22;72629;51.206;4.424;2023-10-08T07:41:46;18.30;70.20
82868;DHT22;72629;51.206;4.424;2023-10-08T07:44:13;18.40;70.10
82868;DHT22;72629;51.206;4.424;2023-10-08T07:46:39;18.40;70.10
82868;DHT22;72629;51.206;4.424;2023-10-08T07:49:04;18.30;70.20
82868;DHT22;72629;51.206;4.424;2023-10-08T07:51:31;18.30;70.20
82868;DHT22;72629;51.206;4.424;2023-10-08T07:53:56;18.40;70.30
82868;DHT22;72629;51.206;4.424;2023-10-08T07:56:22;18.40;70.20
82868;DHT22;72629;51.206;4.424;2023-10-08T07:58:49;18.50;70.20
82868;DHT22;72629;51.206;4.424;2023-10-08T08:01:15;18.50;70.10
82868;DHT22;72629;51.206;4.424;2023-10-08T08:03:41;18.50;70.10
82868;DHT22;72629;51.206;4.424;2023-10-08T08:06:08;18.50;70.20
82868;DHT22;72629;51.206;4.424;2023-10-08T08:08:38;18.50;70.20
82868;DHT22;72629;51.206;4.424;2023-10-08T08:11:07;18.60;70.10
82868;DHT22;72629;51.206;4.424;2023-10-08T08:13:39;18.70;70.30
82868;DHT22;72629;51.206;4.424;2023-10-08T08:16:08;18.70;70.40
82868;DHT22;72629;51.206;4.424;2023-10-08T08:18:53;18.70;70.60
82868;DHT22;72629;51.206;4.424;2023-10-08T08:21:22;18.70;70.70
82868;DHT22;72629;51.206;4.424;2023-10-08T08:23:49;18.80;70.60
82868;DHT22;72629;51.206;4.424;2023-10-08T08:26:20;18.80;70.60
82868;DHT22;72629;51.206;4.424;2023-10-08T08:28:59;18.80;70.70
82868;DHT22;72629;51.206;4.424;2023-10-08T08:31:30;18.80;70.70
82868;DHT22;72629;51.206;4.424;2023-10-08T08:34:01;18.90;70.70
82868;DHT22;72629;51.206;4.424;2023-10-08T08:36:43;19.00;70.60
82868;DHT22;72629;51.206;4.424;2023-10-08T08:39:12;19.00;70.60
82868;DHT22;72629;51.206;4.424;2023-10-08T08:42:00;19.10;70.70
82868;DHT22;72629;51.206;4.424;2023-10-08T08:44:31;19.20;70.90
82868;DHT22;72629;51.206;4.424;2023-10-08T08:46:58;19.20;70.90
82868;DHT22;72629;51.206;4.424;2023-10-08T08:49:32;19.30;70.80
82868;DHT22;72629;51.206;4.424;2023-10-08T08:52:00;19.30;70.60
82868;DHT22;72629;51.206;4.424;2023-10-08T08:54:27;19.30;70.70
82868;DHT22;72629;51.206;4.424;2023-10-08T08:56:57;19.30;71.00
82868;DHT22;72629;51.206;4.424;2023-10-08T08:59:26;19.40;71.10
82868;DHT22;72629;51.206;4.424;2023-10-08T09:01:53;19.40;71.20
82868;DHT22;72629;51.206;4.424;2023-10-08T09:04:30;19.40;71.10
82868;DHT22;72629;51.206;4.424;2023-10-08T09:06:58;19.40;71.20
82868;DHT22;72629;51.206;4.424;2023-10-08T09:09:31;19.40;71.10
82868;DHT22;72629;51.206;4.424;2023-10-08T09:11:57;19.40;71.00
82868;DHT22;72629;51.206;4.424;2023-10-08T09:14:26;19.40;71.00
82868;DHT22;72629;51.206;4.424;2023-10-08T09:16:53;19.50;71.10
82868;DHT22;72629;51.206;4.424;2023-10-08T09:19:25;19.60;71.00
82868;DHT22;72629;51.206;4.424;2023-10-08T09:22:11;19.70;71.00
82868;DHT22;72629;51.206;4.424;2023-10-08T09:24:39;19.80;71.00
82868;DHT22;72629;51.206;4.424;2023-10-08T09:27:07;19.90;70.80
82868;DHT22;72629;51.206;4.424;2023-10-08T09:29:36;19.90;70.70
82868;DHT22;72629;51.206;4.424;2023-10-08T09:32:14;20.00;70.70
82868;DHT22;72629;51.206;4.424;2023-10-08T09:34:40;20.00;70.70
82868;DHT22;72629;51.206;4.424;2023-10-08T09:37:05;20.10;70.80
82868;DHT22;72629;51.206;4.424;2023-10-08T09:39:33;20.10;70.70
82868;DHT22;72629;51.206;4.424;2023-10-08T09:42:03;20.10;70.60
82868;DHT22;72629;51.206;4.424;2023-10-08T09:44:29;20.20;70.50
82868;DHT22;72629;51.206;4.424;2023-10-08T09:47:09;20.30;70.10
82868;DHT22;72629;51.206;4.424;2023-10-08T09:49:44;20.40;69.70
82868;DHT22;72629;51.206;4.424;2023-10-08T09:52:16;20.40;69.40
82868;DHT22;72629;51.206;4.424;2023-10-08T09:54:48;20.50;69.30
82868;DHT22;72629;51.206;4.424;2023-10-08T09:57:16;20.50;69.20
82868;DHT22;72629;51.206;4.424;2023-10-08T09:59:45;20.50;69.30
82868;DHT22;72629;51.206;4.424;2023-10-08T10:02:11;20.50;69.30
82868;DHT22;72629;51.206;4.424;2023-10-08T10:04:45;20.60;69.30
82868;DHT22;72629;51.206;4.424;2023-10-08T10:07:12;20.60;69.10
82868;DHT22;72629;51.206;4.424;2023-10-08T10:09:46;20.70;69.10
82868;DHT22;72629;51.206;4.424;2023-10-08T10:12:19;20.70;68.90
82868;DHT22;72629;51.206;4.424;2023-10-08T10:14:52;20.60;68.50
82868;DHT22;72629;51.206;4.424;2023-10-08T10:17:24;20.70;68.60
82868;DHT22;72629;51.206;4.424;2023-10-08T10:22:33;20.60;68.20
82868;DHT22;72629;51.206;4.424;2023-10-08T10:25:03;20.60;68.40
82868;DHT22;72629;51.206;4.424;2023-10-08T10:30:30;20.70;69.00
82868;DHT22;72629;51.206;4.424;2023-10-08T10:32:55;20.70;69.00
82868;DHT22;72629;51.206;4.424;2023-10-08T10:35:25;20.70;68.70
82868;DHT22;72629;51.206;4.424;2023-10-08T10:37:53;20.70;68.40
82868;DHT22;72629;51.206;4.424;2023-10-08T10:40:24;20.70;68.60
82868;DHT22;72629;51.206;4.424;2023-10-08T10:43:08;20.80;68.50
82868;DHT22;72629;51.206;4.424;2023-10-08T10:45:41;20.80;68.10
82868;DHT22;72629;51.206;4.424;2023-10-08T10:48:12;20.80;68.30
82868;DHT22;72629;51.206;4.424;2023-10-08T10:50:48;20.80;68.50
82868;DHT22;72629;51.206;4.424;2023-10-08T10:53:39;20.90;68.30
82868;DHT22;72629;51.206;4.424;2023-10-08T10:56:26;20.90;68.50
82868;DHT22;72629;51.206;4.424;2023-10-08T10:59:02;20.90;68.00
82868;DHT22;72629;51.206;4.424;2023-10-08T11:01:50;21.00;68.00
82868;DHT22;72629;51.206;4.424;2023-10-08T11:04:31;21.00;68.20
82868;DHT22;72629;51.206;4.424;2023-10-08T11:06:57;21.00;68.70
82868;DHT22;72629;51.206;4.424;2023-10-08T11:09:26;21.00;68.20
82868;DHT22;72629;51.206;4.424;2023-10-08T11:12:02;21.00;68.30
82868;DHT22;72629;51.206;4.424;2023-10-08T11:14:39;21.10;68.10
82868;DHT22;72629;51.206;4.424;2023-10-08T11:17:16;21.10;68.10
82868;DHT22;72629;51.206;4.424;2023-10-08T11:19:44;21.00;67.90
82868;DHT22;72629;51.206;4.424;2023-10-08T11:22:15;21.10;68.50
82868;DHT22;72629;51.206;4.424;2023-10-08T11:24:47;21.10;67.90
82868;DHT22;72629;51.206;4.424;2023-10-08T11:27:19;21.10;67.80
82868;DHT22;72629;51.206;4.424;2023-10-08T11:29:55;21.10;67.90
82868;DHT22;72629;51.206;4.424;2023-10-08T11:32:24;21.10;67.90
82868;DHT22;72629;51.206;4.424;2023-10-08T11:34:58;21.10;67.90
82868;DHT22;72629;51.206;4.424;2023-10-08T11:37:29;21.10;68.30
82868;DHT22;72629;51.206;4.424;2023-10-08T11:39:56;21.20;68.00
82868;DHT22;72629;51.206;4.424;2023-10-08T11:42:25;21.30;67.60
82868;DHT22;72629;51.206;4.424;2023-10-08T11:44:57;21.20;67.40
82868;DHT22;72629;51.206;4.424;2023-10-08T11:47:47;21.30;67.60
82868;DHT22;72629;51.206;4.424;2023-10-08T11:50:15;21.30;67.20
82868;DHT22;72629;51.206;4.424;2023-10-08T11:52:45;21.40;67.00
82868;DHT22;72629;51.206;4.424;2023-10-08T11:55:11;21.40;68.10
82868;DHT22;72629;51.206;4.424;2023-10-08T11:57:48;21.40;66.70
82868;DHT22;72629;51.206;4.424;2023-10-08T12:00:16;21.40;66.90
82868;DHT22;72629;51.206;4.424;2023-10-08T12:02:48;21.30;66.70
82868;DHT22;72629;51.206;4.424;2023-10-08T12:05:14;21.30;66.90
82868;DHT22;72629;51.206;4.424;2023-10-08T12:07:53;21.40;67.10
82868;DHT22;72629;51.206;4.424;2023-10-08T12:10:23;21.40;66.90
82868;DHT22;72629;51.206;4.424;2023-10-08T12:12:53;21.50;66.80
82868;DHT22;72629;51.206;4.424;2023-10-08T12:15:20;21.50;66.80
82868;DHT22;72629;51.206;4.424;2023-10-08T12:17:49;21.60;66.50
82868;DHT22;72629;51.206;4.424;2023-10-08T12:20:38;21.60;66.20
82868;DHT22;72629;51.206;4.424;2023-10-08T12:23:05;21.70;65.90
82868;DHT22;72629;51.206;4.424;2023-10-08T12:25:32;21.90;65.30
82868;DHT22;72629;51.206;4.424;2023-10-08T12:28:01;22.00;65.00
82868;DHT22;72629;51.206;4.424;2023-10-08T12:30:33;22.20;63.70
82868;DHT22;72629;51.206;4.424;2023-10-08T12:33:07;22.40;63.00
82868;DHT22;72629;51.206;4.424;2023-10-08T12:35:35;22.80;61.60
82868;DHT22;72629;51.206;4.424;2023-10-08T12:38:02;23.10;61.00
82868;DHT22;72629;51.206;4.424;2023-10-08T12:40:30;23.30;60.40
82868;DHT22;72629;51.206;4.424;2023-10-08T12:43:08;23.30;60.20
82868;DHT22;72629;51.206;4.424;2023-10-08T12:45:34;23.10;60.40
82868;DHT22;72629;51.206;4.424;2023-10-08T12:48:03;23.00;60.90
82868;DHT22;72629;51.206;4.424;2023-10-08T12:50:30;23.00;60.90
82868;DHT22;72629;51.206;4.424;2023-10-08T12:53:05;22.90;61.10
82868;DHT22;72629;51.206;4.424;2023-10-08T12:55:31;22.80;61.60
82868;DHT22;72629;51.206;4.424;2023-10-08T12:57:57;22.80;61.70
82868;DHT22;72629;51.206;4.424;2023-10-08T13:00:32;22.70;61.90
82868;DHT22;72629;51.206;4.424;2023-10-08T13:02:57;22.80;61.30
82868;DHT22;72629;51.206;4.424;2023-10-08T13:05:23;23.00;60.40
82868;DHT22;72629;51.206;4.424;2023-10-08T13:07:57;23.30;59.60
82868;DHT22;72629;51.206;4.424;2023-10-08T13:10:23;23.60;58.70
82868;DHT22;72629;51.206;4.424;2023-10-08T13:12:49;24.00;58.20
82868;DHT22;72629;51.206;4.424;2023-10-08T13:15:15;24.40;57.10
82868;DHT22;72629;51.206;4.424;2023-10-08T13:17:41;25.00;55.90
82868;DHT22;72629;51.206;4.424;2023-10-08T13:20:12;25.60;54.60
82868;DHT22;72629;51.206;4.424;2023-10-08T13:22:39;26.00;53.40
82868;DHT22;72629;51.206;4.424;2023-10-08T13:25:05;26.50;52.50
82868;DHT22;72629;51.206;4.424;2023-10-08T13:27:31;26.80;51.20
82868;DHT22;72629;51.206;4.424;2023-10-08T13:29:57;27.00;50.50
82868;DHT22;72629;51.206;4.424;2023-10-08T13:32:24;27.10;50.40
82868;DHT22;72629;51.206;4.424;2023-10-08T13:34:50;27.30;49.40
82868;DHT22;72629;51.206;4.424;2023-10-08T13:37:15;27.30;49.30
82868;DHT22;72629;51.206;4.424;2023-10-08T13:39:42;27.40;48.80
82868;DHT22;72629;51.206;4.424;2023-10-08T13:42:07;27.60;48.20
82868;DHT22;72629;51.206;4.424;2023-10-08T13:44:34;27.50;48.20
82868;DHT22;72629;51.206;4.424;2023-10-08T13:47:00;27.30;48.80
82868;DHT22;72629;51.206;4.424;2023-10-08T13:49:31;27.10;49.40
82868;DHT22;72629;51.206;4.424;2023-10-08T13:51:58;26.60;50.00
82868;DHT22;72629;51.206;4.424;2023-10-08T13:54:24;26.30;50.90
82868;DHT22;72629;51.206;4.424;2023-10-08T13:56:58;26.20;51.00
82868;DHT22;72629;51.206;4.424;2023-10-08T13:59:26;26.10;50.90
82868;DHT22;72629;51.206;4.424;2023-10-08T14:01:53;26.20;51.00
82868;DHT22;72629;51.206;4.424;2023-10-08T14:04:20;26.10;50.80
82868;DHT22;72629;51.206;4.424;2023-10-08T14:06:51;25.90;51.40
82868;DHT22;72629;51.206;4.424;2023-10-08T14:09:18;25.70;51.80
82868;DHT22;72629;51.206;4.424;2023-10-08T14:12:05;25.50;52.60
82868;DHT22;72629;51.206;4.424;2023-10-08T14:14:36;25.30;53.20
82868;DHT22;72629;51.206;4.424;2023-10-08T14:17:07;25.10;53.60
82868;DHT22;72629;51.206;4.424;2023-10-08T14:19:35;24.90;54.10
82868;DHT22;72629;51.206;4.424;2023-10-08T14:22:25;24.70;54.60
82868;DHT22;72629;51.206;4.424;2023-10-08T14:24:52;24.60;55.20
82868;DHT22;72629;51.206;4.424;2023-10-08T14:27:27;24.40;55.50
82868;DHT22;72629;51.206;4.424;2023-10-08T14:29:57;24.20;56.10
82868;DHT22;72629;51.206;4.424;2023-10-08T14:32:27;24.10;56.30
82868;DHT22;72629;51.206;4.424;2023-10-08T14:34:53;24.10;56.30
82868;DHT22;72629;51.206;4.424;2023-10-08T14:37:51;24.00;56.50
82868;DHT22;72629;51.206;4.424;2023-10-08T14:40:35;24.00;56.80
82868;DHT22;72629;51.206;4.424;2023-10-08T14:43:19;23.90;56.80
82868;DHT22;72629;51.206;4.424;2023-10-08T14:45:48;23.90;57.10
82868;DHT22;72629;51.206;4.424;2023-10-08T14:48:14;23.80;57.50
82868;DHT22;72629;51.206;4.424;2023-10-08T14:50:40;23.80;57.70
82868;DHT22;72629;51.206;4.424;2023-10-08T14:53:07;23.80;57.50
82868;DHT22;72629;51.206;4.424;2023-10-08T14:55:35;23.70;57.50
82868;DHT22;72629;51.206;4.424;2023-10-08T14:58:01;23.80;57.70
82868;DHT22;72629;51.206;4.424;2023-10-08T15:00:34;23.70;57.60
82868;DHT22;72629;51.206;4.424;2023-10-08T15:03:02;23.60;57.90
82868;DHT22;72629;51.206;4.424;2023-10-08T15:05:31;23.50;58.20
82868;DHT22;72629;51.206;4.424;2023-10-08T15:07:57;23.40;58.60
82868;DHT22;72629;51.206;4.424;2023-10-08T15:10:22;23.30;59.00
82868;DHT22;72629;51.206;4.424;2023-10-08T15:12:49;23.20;59.40
82868;DHT22;72629;51.206;4.424;2023-10-08T15:15:17;23.10;60.90
82868;DHT22;72629;51.206;4.424;2023-10-08T15:17:45;23.00;59.90
82868;DHT22;72629;51.206;4.424;2023-10-08T15:20:12;23.00;59.80
82868;DHT22;72629;51.206;4.424;2023-10-08T15:22:46;23.00;59.90
82868;DHT22;72629;51.206;4.424;2023-10-08T15:25:17;22.90;60.20
82868;DHT22;72629;51.206;4.424;2023-10-08T15:27:43;22.90;60.30
82868;DHT22;72629;51.206;4.424;2023-10-08T15:30:12;22.80;60.40
82868;DHT22;72629;51.206;4.424;2023-10-08T15:32:42;22.80;60.50
82868;DHT22;72629;51.206;4.424;2023-10-08T15:35:10;22.80;60.80
82868;DHT22;72629;51.206;4.424;2023-10-08T15:37:40;22.80;60.90
82868;DHT22;72629;51.206;4.424;2023-10-08T15:40:06;22.80;61.00
82868;DHT22;72629;51.206;4.424;2023-10-08T15:42:33;22.80;60.90
82868;DHT22;72629;51.206;4.424;2023-10-08T15:45:01;22.70;61.10
82868;DHT22;72629;51.206;4.424;2023-10-08T15:47:28;22.70;61.30
82868;DHT22;72629;51.206;4.424;2023-10-08T15:49:54;22.60;61.50
82868;DHT22;72629;51.206;4.424;2023-10-08T15:52:19;22.60;61.60
82868;DHT22;72629;51.206;4.424;2023-10-08T15:54:45;22.50;61.90
82868;DHT22;72629;51.206;4.424;2023-10-08T15:57:11;22.50;62.10
82868;DHT22;72629;51.206;4.424;2023-10-08T15:59:37;22.40;62.20
82868;DHT22;72629;51.206;4.424;2023-10-08T16:02:03;22.30;62.50